createdAt,value
2023-04-16T00:00:09.815Z,94992.00
2023-04-16T00:02:59.366Z,94992.78
2023-04-16T00:05:46.037Z,94996.28
2023-04-16T00:08:32.454Z,94986.13
2023-04-16T00:11:18.873Z,94985.00
2023-04-16T00:14:05.205Z,94987.41
2023-04-16T00:16:51.084Z,94982.81
2023-04-16T00:19:37.354Z,94992.97
2023-04-16T00:22:23.386Z,94993.94
2023-04-16T00:25:10.111Z,94979.50
2023-04-16T00:27:55.945Z,94992.53
2023-04-16T00:30:42.003Z,94984.44
2023-04-16T00:33:27.689Z,94978.75
2023-04-16T00:36:13.519Z,94980.66
2023-04-16T00:38:59.593Z,94980.94
2023-04-16T00:41:47.508Z,94976.81
2023-04-16T00:44:36.068Z,94977.41
2023-04-16T00:47:22.215Z,94974.38
2023-04-16T00:50:12.009Z,94972.28
2023-04-16T00:52:58.470Z,94972.28
2023-04-16T00:55:46.097Z,94977.06
2023-04-16T00:58:33.553Z,94982.47
2023-04-16T01:01:19.276Z,94975.47
2023-04-16T01:04:07.346Z,94971.50
2023-04-16T01:06:53.311Z,94963.72
2023-04-16T01:09:39.332Z,94962.13
2023-04-16T01:12:25.562Z,94953.56
2023-04-16T01:15:12.034Z,94949.94
2023-04-16T01:17:58.186Z,94941.97
2023-04-16T01:20:45.127Z,94953.94
2023-04-16T01:23:32.555Z,94955.53
2023-04-16T01:26:18.559Z,94934.59
2023-04-16T01:29:04.350Z,94944.75
2023-04-16T01:31:50.117Z,94930.09
2023-04-16T01:34:45.608Z,94934.75
2023-04-16T01:37:31.589Z,94930.28
2023-04-16T01:40:18.472Z,94942.16
2023-04-16T01:43:05.853Z,94928.84
2023-04-16T01:45:53.364Z,94935.34
2023-04-16T01:48:39.266Z,94926.16
2023-04-16T01:51:25.336Z,94910.31
2023-04-16T01:54:11.326Z,94904.72
2023-04-16T01:56:58.855Z,94920.44
2023-04-16T01:59:44.721Z,94911.09
2023-04-16T02:02:30.781Z,94910.31
2023-04-16T02:05:16.938Z,94912.69
2023-04-16T02:08:03.244Z,94899.34
2023-04-16T02:10:50.457Z,94894.75
2023-04-16T02:13:36.626Z,94892.72
2023-04-16T02:16:23.040Z,94904.13
2023-04-16T02:19:45.403Z,94889.97
2023-04-16T02:22:31.557Z,94903.94
2023-04-16T02:25:17.537Z,94895.06
2023-04-16T02:28:03.538Z,94896.94
2023-04-16T02:30:54.831Z,94889.97
2023-04-16T02:33:41.148Z,94890.78
2023-04-16T02:36:27.632Z,94893.78
2023-04-16T02:39:14.361Z,94896.16
2023-04-16T02:42:02.608Z,94899.94
2023-04-16T02:44:48.898Z,94894.56
2023-04-16T02:47:34.845Z,94891.88
2023-04-16T02:50:22.228Z,94874.13
2023-04-16T02:53:08.365Z,94883.34
2023-04-16T02:55:55.520Z,94882.19
2023-04-16T02:58:41.618Z,94873.66
2023-04-16T03:01:28.651Z,94871.38
2023-04-16T03:04:14.465Z,94869.75
2023-04-16T03:07:00.547Z,94882.88
2023-04-16T03:09:46.922Z,94883.59
2023-04-16T03:12:32.878Z,94878.34
2023-04-16T03:15:18.815Z,94888.03
2023-04-16T03:18:04.851Z,94887.84
2023-04-16T03:20:53.927Z,94889.91
2023-04-16T03:23:39.964Z,94888.97
2023-04-16T03:26:25.867Z,94885.81
2023-04-16T03:29:11.869Z,94889.78
2023-04-16T03:31:57.816Z,94892.00
2023-04-16T03:34:45.139Z,94883.59
2023-04-16T03:37:31.468Z,94887.41
2023-04-16T03:40:17.448Z,94898.19
2023-04-16T03:43:04.615Z,94897.19
2023-04-16T03:45:51.031Z,94904.66
2023-04-16T03:48:40.566Z,94904.16
2023-04-16T03:51:27.188Z,94910.50
2023-04-16T03:54:13.315Z,94900.38
2023-04-16T03:57:02.508Z,94907.22
2023-04-16T03:59:48.888Z,94913.88
2023-04-16T04:02:36.814Z,94906.91
2023-04-16T04:05:23.257Z,94913.28
2023-04-16T04:08:09.769Z,94917.72
2023-04-16T04:10:56.166Z,94908.56
2023-04-16T04:13:43.584Z,94919.81
2023-04-16T04:16:29.527Z,94922.81
2023-04-16T04:19:18.301Z,94929.00
2023-04-16T04:22:04.267Z,94939.75
2023-04-16T04:24:50.147Z,94937.25
2023-04-16T04:27:36.202Z,94935.97
2023-04-16T04:30:22.520Z,94928.00
2023-04-16T04:33:08.843Z,94932.78
2023-04-16T04:35:57.967Z,94937.22
2023-04-16T04:38:44.681Z,94947.34
2023-04-16T04:41:31.172Z,94941.97
2023-04-16T04:44:17.056Z,94948.34
2023-04-16T04:47:03.157Z,94953.72
2023-04-16T04:49:49.431Z,94955.31
2023-04-16T04:52:36.125Z,94950.41
2023-04-16T04:55:22.420Z,94955.47
2023-04-16T04:58:09.990Z,94951.88
2023-04-16T05:00:58.183Z,94954.44
2023-04-16T05:03:44.660Z,94954.00
2023-04-16T05:06:31.452Z,94962.56
2023-04-16T05:09:17.538Z,94963.38
2023-04-16T05:12:04.337Z,94965.56
2023-04-16T05:14:50.057Z,94958.59
2023-04-16T05:17:35.810Z,94961.28
2023-04-16T05:20:23.149Z,94975.75
2023-04-16T05:23:09.067Z,94972.56
2023-04-16T05:25:55.729Z,94969.88
2023-04-16T05:28:41.768Z,94978.44
2023-04-16T05:31:27.362Z,94979.53
2023-04-16T05:34:13.093Z,94976.53
2023-04-16T05:36:58.971Z,94974.16
2023-04-16T05:39:44.711Z,94986.22
2023-04-16T05:42:30.678Z,94981.13
2023-04-16T05:45:16.693Z,94989.06
2023-04-16T05:48:02.413Z,94994.16
2023-04-16T05:50:48.122Z,94983.06
2023-04-16T05:53:33.888Z,94992.75
2023-04-16T05:56:20.959Z,94991.50
2023-04-16T05:59:07.104Z,94988.81
2023-04-16T06:01:52.830Z,94994.56
2023-04-16T06:04:38.597Z,94987.28
2023-04-16T06:07:24.363Z,94985.84
2023-04-16T06:10:10.899Z,94981.56
2023-04-16T06:12:57.128Z,94974.75
2023-04-16T06:15:43.327Z,94976.53
2023-04-16T06:18:29.496Z,94986.09
2023-04-16T06:21:15.748Z,94977.09
2023-04-16T06:24:01.611Z,94977.75
2023-04-16T06:26:47.532Z,94973.94
2023-04-16T06:29:40.552Z,94971.63
2023-04-16T06:32:27.235Z,94964.78
2023-04-16T06:35:13.005Z,94953.56
2023-04-16T06:37:58.711Z,94959.91
2023-04-16T06:40:44.856Z,94955.78
2023-04-16T06:43:33.600Z,94958.84
2023-04-16T06:46:19.844Z,94956.00
2023-04-16T06:49:06.046Z,94960.44
2023-04-16T06:51:51.941Z,94944.09
2023-04-16T06:54:37.732Z,94942.56
2023-04-16T06:57:23.578Z,94940.47
2023-04-16T07:00:09.854Z,94954.78
2023-04-16T07:02:58.252Z,94948.59
2023-04-16T07:05:44.734Z,94956.06
2023-04-16T07:08:30.604Z,94957.66
2023-04-16T07:11:16.587Z,94956.22
2023-04-16T07:14:02.646Z,94948.63
2023-04-16T07:16:48.754Z,94959.25
2023-04-16T07:19:35.308Z,94962.91
2023-04-16T07:22:21.793Z,94957.81
2023-04-16T07:25:07.948Z,94957.03
2023-04-16T07:27:53.877Z,94967.84
2023-04-16T07:30:39.891Z,94954.94
2023-04-16T07:33:26.149Z,94956.84
2023-04-16T07:36:12.523Z,94950.34
2023-04-16T07:38:58.632Z,94962.41
2023-04-16T07:41:45.142Z,94961.28
2023-04-16T07:44:32.252Z,94957.75
2023-04-16T07:47:17.959Z,94966.81
2023-04-16T07:50:04.125Z,94969.69
2023-04-16T07:52:50.538Z,94970.44
2023-04-16T07:55:36.506Z,94969.81
2023-04-16T07:58:22.227Z,94966.19
2023-04-16T08:01:07.966Z,94977.44
2023-04-16T08:03:54.060Z,94975.53
2023-04-16T08:06:40.178Z,94975.84
2023-04-16T08:09:27.565Z,94969.81
2023-04-16T08:12:13.517Z,94968.22
2023-04-16T08:14:59.522Z,94966.94
2023-04-16T08:17:45.742Z,94956.41
2023-04-16T08:20:32.076Z,94952.88
2023-04-16T08:23:17.802Z,94954.41
2023-04-16T08:26:03.839Z,94941.97
2023-04-16T08:28:49.853Z,94941.59
2023-04-16T08:31:36.023Z,94947.59
2023-04-16T08:34:23.824Z,94956.44
2023-04-16T08:37:10.060Z,94952.22
2023-04-16T08:39:56.047Z,94947.88
2023-04-16T08:42:53.845Z,94938.13
2023-04-16T08:45:41.506Z,94932.53
2023-04-16T08:48:33.147Z,94935.94
2023-04-16T08:51:26.835Z,94947.97
2023-04-16T08:54:47.676Z,94942.38
2023-04-16T08:57:49.705Z,94943.75
2023-04-16T09:00:35.683Z,94930.19
2023-04-16T09:03:22.128Z,94937.72
2023-04-16T09:06:08.825Z,94939.53
2023-04-16T09:08:55.551Z,94940.84
2023-04-16T09:11:41.895Z,94938.94
2023-04-16T09:14:27.951Z,94926.88
2023-04-16T09:17:14.226Z,94910.50
2023-04-16T09:20:00.548Z,94913.25
2023-04-16T09:22:46.849Z,94918.94
2023-04-16T09:25:34.825Z,94916.34
2023-04-16T09:28:43.768Z,94903.63
2023-04-16T09:31:29.683Z,94906.91
2023-04-16T09:34:15.805Z,94893.19
2023-04-16T09:37:17.924Z,94896.41
2023-04-16T09:40:04.694Z,94895.25
2023-04-16T09:42:53.481Z,94891.03
2023-04-16T09:45:50.994Z,94882.03
2023-04-16T09:48:37.784Z,94885.13
2023-04-16T09:51:25.167Z,94882.66
2023-04-16T09:54:11.750Z,94866.44
2023-04-16T09:56:58.213Z,94873.13
2023-04-16T09:59:44.096Z,94863.13
2023-04-16T10:02:31.253Z,94871.66
2023-04-16T10:05:20.390Z,94867.25
2023-04-16T10:08:13.860Z,94857.81
2023-04-16T10:10:59.808Z,94855.47
2023-04-16T10:13:47.505Z,94860.53
2023-04-16T10:16:35.578Z,94835.28
2023-04-16T10:19:22.118Z,94849.13
2023-04-16T10:22:08.074Z,94854.41
2023-04-16T10:24:54.928Z,94838.91
2023-04-16T10:27:41.567Z,94845.38
2023-04-16T10:30:27.825Z,94837.34
2023-04-16T10:33:13.701Z,94835.47
2023-04-16T10:36:22.007Z,94826.13
2023-04-16T10:39:16.846Z,94836.03
2023-04-16T10:42:13.269Z,94839.63
2023-04-16T10:45:00.339Z,94826.41
2023-04-16T10:47:46.403Z,94825.56
2023-04-16T10:50:41.693Z,94834.88
2023-04-16T10:53:39.062Z,94835.63
2023-04-16T10:56:28.049Z,94822.97
2023-04-16T10:59:13.966Z,94835.81
2023-04-16T11:02:04.074Z,94830.72
2023-04-16T11:04:50.199Z,94820.47
2023-04-16T11:07:36.276Z,94823.19
2023-04-16T11:10:22.058Z,94832.59
2023-04-16T11:13:09.164Z,94830.59
2023-04-16T11:15:57.917Z,94824.25
2023-04-16T11:18:51.377Z,94830.88
2023-04-16T11:21:45.298Z,94825.44
2023-04-16T11:24:32.246Z,94817.25
2023-04-16T11:27:18.046Z,94818.75
2023-04-16T11:30:11.363Z,94810.94
2023-04-16T11:32:57.212Z,94810.94
2023-04-16T11:35:43.538Z,94812.16
2023-04-16T11:38:34.543Z,94803.31
2023-04-16T11:41:21.980Z,94801.44
2023-04-16T11:44:24.909Z,94790.97
2023-04-16T11:47:13.799Z,94791.31
2023-04-16T11:50:22.531Z,94783.69
2023-04-16T11:53:12.347Z,94791.66
2023-04-16T11:55:59.199Z,94786.13
2023-04-16T11:59:07.225Z,94780.56
2023-04-16T12:01:58.019Z,94782.84
2023-04-16T12:04:44.245Z,94778.84
2023-04-16T12:07:30.705Z,94781.19
2023-04-16T12:10:16.442Z,94775.28
2023-04-16T12:13:14.803Z,94767.09
2023-04-16T12:16:03.874Z,94780.31
2023-04-16T12:19:04.149Z,94765.34
2023-04-16T12:21:50.760Z,94765.25
2023-04-16T12:24:37.956Z,94782.06
2023-04-16T12:27:28.586Z,94773.50
2023-04-16T12:30:15.768Z,94770.00
2023-04-16T12:33:15.504Z,94762.53
2023-04-16T12:36:19.454Z,94757.94
2023-04-16T12:39:07.504Z,94761.06
2023-04-16T12:41:53.752Z,94749.75
2023-04-16T12:44:39.554Z,94745.88
2023-04-16T12:47:25.290Z,94743.50
2023-04-16T12:50:12.189Z,94743.88
2023-04-16T12:52:58.444Z,94739.50
2023-04-16T12:55:45.424Z,94725.81
2023-04-16T12:58:31.453Z,94728.56
2023-04-16T13:01:20.601Z,94724.81
2023-04-16T13:04:07.751Z,94729.09
2023-04-16T13:06:53.829Z,94729.22
2023-04-16T13:09:40.139Z,94721.97
2023-04-16T13:12:27.429Z,94724.31
2023-04-16T13:15:13.507Z,94720.59
2023-04-16T13:17:59.652Z,94705.88
2023-04-16T13:20:45.957Z,94718.44
2023-04-16T13:23:31.786Z,94726.22
2023-04-16T13:26:17.816Z,94719.06
2023-04-16T13:29:03.825Z,94709.16
2023-04-16T13:31:49.755Z,94711.38
2023-04-16T13:34:35.912Z,94712.03
2023-04-16T13:37:21.660Z,94711.53
2023-04-16T13:40:08.453Z,94712.97
2023-04-16T13:42:54.679Z,94702.66
2023-04-16T13:45:40.704Z,94706.84
2023-04-16T13:48:26.849Z,94700.09
2023-04-16T13:51:15.479Z,94702.75
2023-04-16T13:54:02.815Z,94698.44
2023-04-16T13:56:50.678Z,94704.63
2023-04-16T13:59:37.258Z,94705.78
2023-04-16T14:02:23.128Z,94701.19
2023-04-16T14:05:09.745Z,94698.34
2023-04-16T14:07:56.079Z,94694.59
2023-04-16T14:10:42.249Z,94702.94
2023-04-16T14:13:28.417Z,94692.28
2023-04-16T14:16:14.542Z,94707.31
2023-04-16T14:19:00.951Z,94698.75
2023-04-16T14:21:47.407Z,94707.41
2023-04-16T14:24:33.329Z,94705.03
2023-04-16T14:27:19.021Z,94711.63
2023-04-16T14:30:06.275Z,94711.03
2023-04-16T14:32:52.499Z,94713.16
2023-04-16T14:35:38.324Z,94723.91
2023-04-16T14:38:24.288Z,94713.53
2023-04-16T14:41:12.539Z,94710.97
2023-04-16T14:43:59.500Z,94702.91
2023-04-16T14:46:46.442Z,94690.16
2023-04-16T14:49:32.489Z,94693.47
2023-04-16T14:52:18.680Z,94694.47
2023-04-16T14:55:05.819Z,94698.22
2023-04-16T14:57:51.591Z,94701.28
2023-04-16T15:00:37.689Z,94696.13
2023-04-16T15:03:24.166Z,94703.50
2023-04-16T15:06:11.473Z,94702.22
2023-04-16T15:08:57.208Z,94700.97
2023-04-16T15:11:43.000Z,94696.16
2023-04-16T15:14:28.901Z,94702.31
2023-04-16T15:17:14.952Z,94691.34
2023-04-16T15:20:01.883Z,94696.16
2023-04-16T15:22:47.555Z,94683.81
2023-04-16T15:25:33.500Z,94690.22
2023-04-16T15:28:19.765Z,94688.06
2023-04-16T15:31:05.905Z,94695.34
2023-04-16T15:33:52.701Z,94693.38
2023-04-16T15:36:38.627Z,94710.81
2023-04-16T15:39:24.932Z,94705.41
2023-04-16T15:42:13.238Z,94702.22
2023-04-16T15:44:59.252Z,94706.00
2023-04-16T15:47:48.082Z,94703.53
2023-04-16T15:50:34.046Z,94709.50
2023-04-16T15:53:20.151Z,94713.31
2023-04-16T15:56:06.408Z,94708.44
2023-04-16T15:58:52.497Z,94707.47
2023-04-16T16:01:38.795Z,94710.53
2023-04-16T16:04:26.553Z,94709.25
2023-04-16T16:07:13.120Z,94720.50
2023-04-16T16:09:58.947Z,94722.75
2023-04-16T16:12:44.929Z,94717.13
2023-04-16T16:15:32.165Z,94716.25
2023-04-16T16:18:18.083Z,94716.94
2023-04-16T16:21:04.106Z,94714.47
2023-04-16T16:23:50.077Z,94720.59
2023-04-16T16:26:36.178Z,94717.03
2023-04-16T16:29:22.307Z,94713.47
2023-04-16T16:32:08.529Z,94720.34
2023-04-16T16:34:54.530Z,94721.81
2023-04-16T16:37:40.666Z,94714.25
2023-04-16T16:40:26.735Z,94709.06
2023-04-16T16:43:13.237Z,94716.09
2023-04-16T16:45:59.314Z,94724.59
2023-04-16T16:48:46.406Z,94717.84
2023-04-16T16:51:33.722Z,94719.28
2023-04-16T16:54:54.667Z,94726.59
2023-04-16T16:57:46.129Z,94731.63
2023-04-16T17:00:44.584Z,94726.53
2023-04-16T17:03:30.453Z,94721.72
2023-04-16T17:06:16.559Z,94726.31
2023-04-16T17:09:02.525Z,94729.81
2023-04-16T17:11:48.476Z,94725.47
2023-04-16T17:14:35.445Z,94729.25
2023-04-16T17:17:21.817Z,94724.31
2023-04-16T17:20:10.019Z,94723.81
2023-04-16T17:22:56.050Z,94728.09
2023-04-16T17:25:42.272Z,94729.19
2023-04-16T17:28:28.368Z,94736.22
2023-04-16T17:31:14.966Z,94735.53
2023-04-16T17:34:01.134Z,94732.91
2023-04-16T17:36:51.876Z,94740.38
2023-04-16T17:39:38.288Z,94734.53
2023-04-16T17:42:26.081Z,94742.88
2023-04-16T17:45:13.664Z,94744.94
2023-04-16T17:47:59.640Z,94740.78
2023-04-16T17:50:46.068Z,94736.22
2023-04-16T17:53:33.001Z,94747.34
2023-04-16T17:56:19.023Z,94745.47
2023-04-16T17:59:05.245Z,94757.78
2023-04-16T18:01:54.914Z,94761.91
2023-04-16T18:04:40.969Z,94764.41
2023-04-16T18:07:27.289Z,94759.09
2023-04-16T18:10:13.438Z,94766.25
2023-04-16T18:12:59.608Z,94774.84
2023-04-16T18:15:45.906Z,94779.38
2023-04-16T18:18:31.974Z,94776.47
2023-04-16T18:21:17.735Z,94777.59
2023-04-16T18:24:03.958Z,94779.06
2023-04-16T18:26:49.996Z,94787.53
2023-04-16T18:29:36.089Z,94794.09
2023-04-16T18:32:22.100Z,94788.19
2023-04-16T18:35:08.294Z,94789.13
2023-04-16T18:37:54.323Z,94779.72
2023-04-16T18:40:42.235Z,94794.75
2023-04-16T18:43:28.090Z,94797.91
2023-04-16T18:46:14.915Z,94798.50
2023-04-16T18:49:01.036Z,94800.41
2023-04-16T18:51:47.082Z,94803.56
2023-04-16T18:54:33.050Z,94800.84
2023-04-16T18:57:19.098Z,94798.13
2023-04-16T19:00:11.124Z,94799.72
2023-04-16T19:02:56.944Z,94798.13
2023-04-16T19:05:43.092Z,94782.53
2023-04-16T19:08:29.149Z,94789.56
2023-04-16T19:11:15.346Z,94791.81
2023-04-16T19:14:03.307Z,94791.69
2023-04-16T19:16:49.348Z,94783.56
2023-04-16T19:19:36.032Z,94789.44
2023-04-16T19:22:22.200Z,94785.47
2023-04-16T19:25:09.280Z,94789.31
2023-04-16T19:28:00.007Z,94782.91
2023-04-16T19:30:52.962Z,94783.47
2023-04-16T19:33:39.052Z,94787.31
2023-04-16T19:36:24.932Z,94783.69
2023-04-16T19:39:13.012Z,94780.84
2023-04-16T19:42:01.930Z,94782.34
2023-04-16T19:44:50.871Z,94786.19
2023-04-16T19:47:38.516Z,94797.81
2023-04-16T19:50:24.878Z,94786.84
2023-04-16T19:53:11.918Z,94787.75
2023-04-16T19:55:58.927Z,94787.31
2023-04-16T19:58:45.919Z,94783.91
2023-04-16T20:01:43.466Z,94783.47
2023-04-16T20:04:34.910Z,94783.91
2023-04-16T20:07:20.872Z,94784.34
2023-04-16T20:10:07.486Z,94787.84
2023-04-16T20:12:53.547Z,94784.81
2023-04-16T20:15:39.577Z,94784.13
2023-04-16T20:18:28.263Z,94783.34
2023-04-16T20:21:14.800Z,94779.38
2023-04-16T20:24:01.811Z,94777.47
2023-04-16T20:26:47.886Z,94790.34
2023-04-16T20:29:33.681Z,94776.34
2023-04-16T20:32:20.203Z,94780.28
2023-04-16T20:35:10.439Z,94773.94
2023-04-16T20:37:56.644Z,94781.63
2023-04-16T20:40:45.063Z,94772.16
2023-04-16T20:43:38.172Z,94775.66
2023-04-16T20:46:30.346Z,94773.50
2023-04-16T20:49:18.596Z,94778.25
2023-04-16T20:52:05.613Z,94773.50
2023-04-16T20:54:52.468Z,94761.88
2023-04-16T20:57:40.504Z,94765.81
2023-04-16T21:00:26.145Z,94776.69
2023-04-16T21:03:12.074Z,94762.66
2023-04-16T21:05:58.145Z,94758.38
2023-04-16T21:08:44.521Z,94757.34
2023-04-16T21:11:33.502Z,94756.56
2023-04-16T21:14:19.415Z,94759.59
2023-04-16T21:17:05.604Z,94766.28
2023-04-16T21:19:51.657Z,94765.16
2023-04-16T21:22:37.863Z,94753.41
2023-04-16T21:25:24.139Z,94763.56
2023-04-16T21:28:10.054Z,94752.25
2023-04-16T21:30:55.883Z,94753.41
2023-04-16T21:33:41.584Z,94747.09
2023-04-16T21:36:32.089Z,94749.34
2023-04-16T21:39:19.840Z,94746.19
2023-04-16T21:42:09.091Z,94759.41
2023-04-16T21:44:56.353Z,94749.22
2023-04-16T21:47:42.229Z,94743.69
2023-04-16T21:50:28.200Z,94751.16
2023-04-16T21:53:14.249Z,94757.47
2023-04-16T21:56:00.204Z,94757.47
2023-04-16T21:58:47.652Z,94753.19
2023-04-16T22:01:35.432Z,94750.13
2023-04-16T22:04:26.264Z,94747.44
2023-04-16T22:07:12.193Z,94749.47
2023-04-16T22:10:11.342Z,94745.50
2023-04-16T22:12:59.619Z,94752.59
2023-04-16T22:15:46.166Z,94741.66
2023-04-16T22:18:35.078Z,94747.75
2023-04-16T22:21:21.323Z,94747.75
2023-04-16T22:24:07.834Z,94743.69
2023-04-16T22:26:53.784Z,94741.22
2023-04-16T22:29:40.498Z,94744.13
2023-04-16T22:32:30.327Z,94731.75
2023-04-16T22:35:16.572Z,94730.38
2023-04-16T22:38:02.606Z,94740.09
2023-04-16T22:40:49.094Z,94740.09
2023-04-16T22:43:37.152Z,94734.53
2023-04-16T22:46:24.806Z,94736.91
2023-04-16T22:49:11.189Z,94736.25
2023-04-16T22:51:57.337Z,94728.13
2023-04-16T22:54:43.263Z,94724.63
2023-04-16T22:57:29.105Z,94720.78
2023-04-16T23:00:18.288Z,94726.19
2023-04-16T23:03:04.559Z,94719.97
2023-04-16T23:05:52.012Z,94727.66
2023-04-16T23:08:38.077Z,94720.44
2023-04-16T23:11:24.188Z,94726.66
2023-04-16T23:14:10.109Z,94715.69
2023-04-16T23:16:55.935Z,94714.78
2023-04-16T23:19:42.407Z,94713.97
2023-04-16T23:22:28.493Z,94713.22
2023-04-16T23:25:14.251Z,94706.09
2023-04-16T23:28:00.240Z,94719.66
2023-04-16T23:30:46.810Z,94712.09
2023-04-16T23:33:32.506Z,94705.28
2023-04-16T23:36:18.340Z,94708.00
2023-04-16T23:39:04.039Z,94698.97
2023-04-16T23:41:58.272Z,94696.25
2023-04-16T23:44:45.172Z,94696.25
2023-04-16T23:47:31.344Z,94695.47
2023-04-16T23:50:17.245Z,94690.81
2023-04-16T23:53:03.187Z,94696.59
2023-04-16T23:55:49.439Z,94686.56
2023-04-16T23:58:35.384Z,94686.91
